Time;durP1;ratioP1;P1;durP2;ratioP2;P2;SDS_P1;SDS_P2;PMS_P1;PMS_P2;Temp;Humidity;BMP_temperature;BMP_pressure;BME280_temperature;BME280_humidity;BME280_pressure;Samples;Min_cycle;Max_cycle;Signal;HPM_P1;HPM_P2
2022/02/13 00:01:39;;;;;;;4.22;1.10;;;;;;;1.32;100.00;100295.13;4979215;28;20046;-61
2022/02/13 00:04:24;;;;;;;4.93;1.30;;;;;;;1.42;100.00;100289.28;4974994;28;20048;-60
2022/02/13 00:07:13;;;;;;;4.43;1.40;;;;;;;1.59;100.00;100290.56;4980502;28;20116;-59
2022/02/13 00:10:04;;;;;;;5.47;1.40;;;;;;;1.39;100.00;100292.72;4977788;28;20062;-58
2022/02/13 00:12:48;;;;;;;5.07;1.55;;;;;;;1.14;100.00;100294.69;4981366;28;20474;-57
2022/02/13 00:15:33;;;;;;;5.50;1.70;;;;;;;1.11;100.00;100299.81;4985868;28;20109;-58
2022/02/13 00:18:18;;;;;;;6.75;2.05;;;;;;;1.24;100.00;100288.81;4997100;28;20107;-61
2022/02/13 00:21:02;;;;;;;5.07;1.88;;;;;;;1.57;100.00;100287.91;4951620;28;20280;-58
2022/02/13 00:23:47;;;;;;;6.40;1.90;;;;;;;1.23;100.00;100240.91;4965660;28;20534;-55
2022/02/13 00:26:31;;;;;;;4.38;1.60;;;;;;;1.53;100.00;100286.09;4968622;28;20066;-54
2022/02/13 00:29:16;;;;;;;3.25;1.40;;;;;;;1.52;100.00;100281.72;4960526;28;20917;-60
2022/02/13 00:32:00;;;;;;;5.32;1.35;;;;;;;1.10;100.00;100288.47;4946868;29;20098;-59
2022/02/13 00:34:45;;;;;;;4.72;1.40;;;;;;;1.05;100.00;100295.31;4954853;28;20412;-59
2022/02/13 00:37:29;;;;;;;3.42;1.42;;;;;;;0.88;100.00;100300.94;4947248;28;20067;-62
2022/02/13 00:40:14;;;;;;;6.93;1.33;;;;;;;0.98;100.00;100289.91;4949498;28;20101;-58
2022/02/13 00:42:59;;;;;;;3.97;1.25;;;;;;;0.74;100.00;100284.03;4941367;28;20543;-60
2022/02/13 00:45:45;;;;;;;2.00;1.00;;;;;;;0.83;100.00;100273.84;4963802;28;20105;-59
2022/02/13 00:48:29;;;;;;;3.58;1.15;;;;;;;0.74;100.00;100291.88;4969192;28;20097;-59
2022/02/13 00:51:14;;;;;;;2.63;1.23;;;;;;;0.48;100.00;100241.59;4964446;28;20751;-54
2022/02/13 00:53:59;;;;;;;7.82;1.90;;;;;;;0.87;100.00;100266.09;4958177;28;20054;-59
2022/02/13 00:56:44;;;;;;;6.47;1.50;;;;;;;0.79;100.00;100230.22;4955910;28;20484;-60
2022/02/13 00:59:30;;;;;;;2.92;1.40;;;;;;;1.33;100.00;100284.72;4952469;28;20101;-59
2022/02/13 01:02:15;;;;;;;3.53;1.52;;;;;;;1.22;100.00;100286.19;4954170;28;20049;-60
2022/02/13 01:05:00;;;;;;;3.50;1.30;;;;;;;1.26;100.00;100292.38;4962701;28;20114;-56
2022/02/13 01:07:45;;;;;;;4.28;1.10;;;;;;;1.31;100.00;100275.97;4925664;28;20050;-58
2022/02/13 01:10:31;;;;;;;4.78;1.33;;;;;;;1.24;100.00;100276.66;4960934;28;20054;-58
2022/02/13 01:13:16;;;;;;;3.85;1.10;;;;;;;1.23;100.00;100274.88;4941222;28;20486;-57
2022/02/13 01:16:02;;;;;;;4.68;1.13;;;;;;;1.38;100.00;100283.09;4959920;28;20049;-61
2022/02/13 01:18:47;;;;;;;5.50;1.17;;;;;;;1.26;100.00;100285.41;4955057;28;20073;-59
2022/02/13 01:21:31;;;;;;;3.55;1.08;;;;;;;1.23;100.00;100266.19;4962382;28;20402;-61
2022/02/13 01:24:15;;;;;;;4.07;1.20;;;;;;;1.19;100.00;100278.25;4936112;29;20139;-58
2022/02/13 01:27:00;;;;;;;4.38;1.15;;;;;;;0.94;100.00;100281.09;4963805;28;20071;-58
2022/02/13 01:29:45;;;;;;;9.35;1.50;;;;;;;1.17;100.00;100279.06;4924160;28;20057;-61
2022/02/13 01:32:30;;;;;;;5.57;1.30;;;;;;;1.10;100.00;100282.38;4953767;28;20634;-58
2022/02/13 01:35:14;;;;;;;3.28;1.10;;;;;;;0.90;100.00;100284.47;4961363;28;20100;-59
2022/02/13 01:37:59;;;;;;;6.57;1.45;;;;;;;0.94;100.00;100280.22;4954163;28;20085;-58
2022/02/13 01:40:44;;;;;;;3.17;1.35;;;;;;;0.73;100.00;100285.75;4966508;28;20049;-54
2022/02/13 01:43:28;;;;;;;4.30;1.27;;;;;;;0.86;100.00;100279.16;4969741;28;20427;-60
2022/02/13 01:46:13;;;;;;;3.80;1.08;;;;;;;0.90;100.00;100287.06;4946059;28;20205;-58
2022/02/13 01:48:57;;;;;;;3.72;1.00;;;;;;;1.05;100.00;100279.66;4940186;28;20205;-60
2022/02/13 01:51:42;;;;;;;2.58;1.23;;;;;;;1.05;100.00;100273.53;4960441;28;20428;-59
2022/02/13 01:54:28;;;;;;;5.22;1.30;;;;;;;0.67;100.00;100266.44;4909972;29;20166;-60
2022/02/13 01:57:12;;;;;;;5.82;1.63;;;;;;;0.71;100.00;100286.56;4981437;28;20101;-56
2022/02/13 01:59:57;;;;;;;2.90;1.23;;;;;;;0.89;100.00;100274.88;4950795;28;20077;-58
2022/02/13 02:02:42;;;;;;;3.92;1.17;;;;;;;1.03;100.00;100277.84;4920754;29;20685;-58
2022/02/13 02:05:26;;;;;;;3.22;1.00;;;;;;;1.26;100.00;100287.16;4931195;28;20059;-58
2022/02/13 02:08:11;;;;;;;3.38;1.08;;;;;;;1.04;100.00;100233.50;4978679;28;20475;-58
2022/02/13 02:10:55;;;;;;;4.88;1.30;;;;;;;1.07;100.00;100235.31;4968611;28;20050;-59
2022/02/13 02:13:40;;;;;;;4.57;1.30;;;;;;;1.48;100.00;100292.94;4961476;28;20138;-61
2022/02/13 02:16:25;;;;;;;2.55;1.23;;;;;;;1.36;100.00;100247.34;4936190;28;20549;-59
2022/02/13 02:19:11;;;;;;;3.30;1.20;;;;;;;1.46;100.00;100288.53;4947286;28;20562;-58
2022/02/13 02:21:55;;;;;;;6.38;1.40;;;;;;;1.37;100.00;100278.72;4955652;28;20470;-58
2022/02/13 02:24:41;;;;;;;5.05;1.80;;;;;;;1.29;100.00;100267.22;4960040;28;20107;-57
2022/02/13 02:27:26;;;;;;;4.63;1.08;;;;;;;1.14;100.00;100276.41;4941274;28;20106;-55
2022/02/13 02:30:11;;;;;;;3.08;1.00;;;;;;;1.13;100.00;100285.94;4982566;28;20105;-60
2022/02/13 02:32:55;;;;;;;5.60;1.08;;;;;;;1.06;100.00;100277.94;4969976;28;20056;-58
2022/02/13 02:35:40;;;;;;;4.88;1.08;;;;;;;1.25;100.00;100296.69;4987875;28;20061;-58
2022/02/13 02:38:25;;;;;;;4.13;1.00;;;;;;;1.37;100.00;100299.63;4966812;28;20058;-60
2022/02/13 02:41:10;;;;;;;3.28;1.00;;;;;;;1.35;100.00;100298.72;4978252;28;20061;-60
2022/02/13 02:43:54;;;;;;;3.13;1.00;;;;;;;1.51;100.00;100302.56;4975191;28;20648;-62
2022/02/13 02:46:39;;;;;;;5.30;1.10;;;;;;;1.41;100.00;100298.84;4985158;28;20428;-59
2022/02/13 02:49:23;;;;;;;3.97;1.30;;;;;;;1.37;100.00;100263.06;4959464;28;20531;-58
2022/02/13 02:52:08;;;;;;;3.47;1.02;;;;;;;1.43;100.00;100289.34;4968944;28;20190;-59
2022/02/13 02:54:52;;;;;;;4.75;0.82;;;;;;;1.28;100.00;100295.91;4965875;28;20533;-57
2022/02/13 02:57:37;;;;;;;4.78;1.20;;;;;;;1.44;100.00;100290.19;4973966;28;20093;-59
2022/02/13 03:00:21;;;;;;;6.50;1.30;;;;;;;1.13;100.00;100246.78;4979146;28;20123;-58
2022/02/13 03:03:05;;;;;;;5.10;1.13;;;;;;;1.24;100.00;100242.72;4970109;28;20053;-61
2022/02/13 03:05:50;;;;;;;3.13;1.30;;;;;;;1.51;100.00;100290.41;4979016;28;20134;-58
2022/02/13 03:08:35;;;;;;;6.47;1.50;;;;;;;1.49;100.00;100288.56;4978685;28;20058;-59
2022/02/13 03:11:19;;;;;;;5.03;1.00;;;;;;;1.53;100.00;100280.84;4973453;28;20101;-60
2022/02/13 03:14:04;;;;;;;3.92;1.10;;;;;;;1.65;100.00;100288.97;4972198;28;20580;-58
2022/02/13 03:16:49;;;;;;;4.22;1.20;;;;;;;1.49;100.00;100292.06;4986636;28;20449;-61
2022/02/13 03:19:37;;;;;;;4.40;1.30;;;;;;;1.43;100.00;100284.13;4973550;28;20134;-59
2022/02/13 03:22:21;;;;;;;7.55;1.40;;;;;;;1.42;100.00;100291.91;4978972;28;20085;-58
2022/02/13 03:25:07;;;;;;;3.28;1.10;;;;;;;1.34;100.00;100294.31;4966055;28;20077;-58
2022/02/13 03:27:52;;;;;;;5.45;1.25;;;;;;;1.42;100.00;100298.00;4951818;28;20077;-57
2022/02/13 03:30:37;;;;;;;4.65;1.35;;;;;;;1.23;100.00;100255.72;4927958;28;20110;-61
2022/02/13 03:33:22;;;;;;;5.38;1.25;;;;;;;1.37;100.00;100290.88;4946944;28;20412;-59
2022/02/13 03:36:06;;;;;;;5.68;2.67;;;;;;;1.40;100.00;100291.88;4964688;28;20177;-60
2022/02/13 03:38:53;;;;;;;7.40;2.47;;;;;;;1.40;100.00;100294.47;4955233;28;20736;-60
2022/02/13 03:41:37;;;;;;;3.35;1.30;;;;;;;1.43;100.00;100283.22;4950915;28;20050;-63
2022/02/13 03:44:22;;;;;;;4.70;1.23;;;;;;;1.13;100.00;100235.44;4969705;28;20134;-57
2022/02/13 03:47:06;;;;;;;3.80;1.40;;;;;;;1.21;100.00;100253.06;4975861;28;20053;-58
2022/02/13 03:49:51;;;;;;;5.35;1.17;;;;;;;1.45;100.00;100290.25;4950715;28;20062;-59
2022/02/13 03:52:37;;;;;;;5.38;1.50;;;;;;;1.42;100.00;100295.38;4910477;29;20135;-57
2022/02/13 03:55:22;;;;;;;4.72;0.98;;;;;;;1.42;100.00;100277.09;4922269;28;20057;-61
2022/02/13 03:58:06;;;;;;;3.45;0.95;;;;;;;1.43;100.00;100301.50;4954384;28;20117;-63
2022/02/13 04:00:51;;;;;;;8.30;1.50;;;;;;;1.46;100.00;100292.00;4967891;28;20048;-58
2022/02/13 04:03:35;;;;;;;;;;;;;;;1.55;100.00;100292.25;4933455;28;20046;-58
2022/02/13 04:06:20;;;;;;;4.95;1.10;;;;;;;1.44;100.00;100291.09;4932767;28;19956;-57
2022/02/13 04:09:04;;;;;;;5.47;1.00;;;;;;;1.40;100.00;100288.34;4963394;28;20058;-56
2022/02/13 04:11:49;;;;;;;2.58;0.80;;;;;;;1.43;100.00;100298.91;4956246;28;20106;-58
2022/02/13 04:14:41;;;;;;;2.00;0.77;;;;;;;1.46;100.00;100297.22;4924697;28;20054;-66
2022/02/13 04:17:25;;;;;;;4.97;1.05;;;;;;;1.55;100.00;100302.69;4961505;28;20427;-57
2022/02/13 04:20:10;;;;;;;3.40;0.80;;;;;;;1.53;100.00;100308.69;4966237;28;20066;-56
2022/02/13 04:22:55;;;;;;;5.57;0.80;;;;;;;1.58;100.00;100296.66;4924031;28;20583;-57
2022/02/13 04:25:39;;;;;;;3.35;0.95;;;;;;;1.55;100.00;100297.47;4964180;28;20495;-63
2022/02/13 04:28:24;;;;;;;3.53;0.77;;;;;;;1.57;100.00;100298.38;4953682;28;20143;-61
2022/02/13 04:31:08;;;;;;;6.57;1.60;;;;;;;1.27;100.00;100247.97;4953905;28;20079;-63
2022/02/13 04:33:52;;;;;;;7.07;2.15;;;;;;;1.55;100.00;100291.34;4952864;28;20053;-63
2022/02/13 04:36:37;;;;;;;7.15;1.58;;;;;;;1.61;100.00;100308.06;4947366;28;20063;-65
2022/02/13 04:39:21;;;;;;;5.18;1.33;;;;;;;1.64;100.00;100307.25;4951084;28;20058;-63
2022/02/13 04:42:06;;;;;;;6.07;1.20;;;;;;;1.71;100.00;100317.00;4974824;28;20058;-62
2022/02/13 04:44:51;;;;;;;10.35;1.40;;;;;;;1.55;100.00;100284.41;4962613;28;20429;-64
2022/02/13 04:47:36;;;;;;;4.68;1.00;;;;;;;1.78;100.00;100317.16;4965914;28;20062;-62
2022/02/13 04:50:23;;;;;;;3.58;0.80;;;;;;;1.61;100.00;100266.25;4965941;28;20070;-64
2022/02/13 04:53:08;;;;;;;5.00;1.02;;;;;;;1.91;100.00;100315.72;4917336;28;20131;-63
2022/02/13 04:55:52;;;;;;;4.43;1.00;;;;;;;1.87;100.00;100311.28;4947882;28;20053;-65
2022/02/13 04:58:37;;;;;;;3.92;0.95;;;;;;;1.79;100.00;100308.50;4944102;28;20054;-64
2022/02/13 05:01:21;;;;;;;2.55;0.73;;;;;;;1.76;100.00;100289.22;4963235;28;20422;-61
2022/02/13 05:04:05;;;;;;;3.00;0.77;;;;;;;1.99;100.00;100332.47;4949046;28;20061;-62
2022/02/13 05:06:50;;;;;;;4.57;0.65;;;;;;;1.95;100.00;100302.78;4963840;28;20061;-63
2022/02/13 05:09:35;;;;;;;3.80;0.77;;;;;;;1.95;100.00;100305.38;4952585;28;20050;-61
2022/02/13 05:12:19;;;;;;;3.10;0.63;;;;;;;1.93;100.00;100294.00;4965698;28;20137;-66
2022/02/13 05:15:04;;;;;;;3.63;0.70;;;;;;;2.08;100.00;100324.81;4942072;28;20522;-63
2022/02/13 05:17:48;;;;;;;3.38;0.70;;;;;;;2.03;100.00;100324.75;4964250;28;20593;-64
2022/02/13 05:20:33;;;;;;;4.75;0.80;;;;;;;1.96;100.00;100303.63;4963513;28;20057;-63
2022/02/13 05:23:17;;;;;;;2.40;0.75;;;;;;;2.19;100.00;100339.94;4954713;28;20209;-64
2022/02/13 05:26:03;;;;;;;3.03;0.70;;;;;;;2.26;100.00;100338.31;4966303;28;20121;-69
2022/02/13 05:28:47;;;;;;;3.03;0.80;;;;;;;2.32;100.00;100348.91;4934080;29;20054;-65
2022/02/13 05:31:32;;;;;;;2.55;0.65;;;;;;;2.38;100.00;100351.69;4979356;28;20057;-72
2022/02/13 05:34:16;;;;;;;3.42;0.80;;;;;;;2.26;100.00;100335.72;4968170;28;20066;-65
2022/02/13 05:37:01;;;;;;;5.47;0.95;;;;;;;2.29;100.00;100362.81;4952264;28;20467;-64
2022/02/13 05:39:46;;;;;;;3.08;0.90;;;;;;;2.27;100.00;100322.66;4938580;28;20062;-62
2022/02/13 05:42:31;;;;;;;2.20;1.10;;;;;;;2.40;100.00;100355.19;4957911;28;20054;-63
2022/02/13 05:45:15;;;;;;;4.00;1.10;;;;;;;2.35;100.00;100347.25;4961943;28;20419;-62
2022/02/13 05:48:00;;;;;;;6.32;1.15;;;;;;;2.18;100.00;100330.28;4968284;28;20289;-64
2022/02/13 05:50:45;;;;;;;4.13;1.25;;;;;;;2.40;100.00;100356.09;4955412;28;20130;-71
2022/02/13 05:53:29;;;;;;;5.03;1.15;;;;;;;2.39;100.00;100353.44;4942701;28;20368;-65
2022/02/13 05:56:14;;;;;;;3.97;1.10;;;;;;;2.32;100.00;100348.91;4935040;28;20079;-63
2022/02/13 05:58:59;;;;;;;6.60;1.08;;;;;;;2.36;100.00;100355.97;4960934;28;20073;-64
2022/02/13 06:01:43;;;;;;;3.10;1.00;;;;;;;2.26;100.00;100352.28;4955002;28;20082;-62
2022/02/13 06:04:27;;;;;;;4.43;1.33;;;;;;;2.27;100.00;100340.09;4950304;29;20130;-60
2022/02/13 06:07:12;;;;;;;3.67;0.90;;;;;;;2.35;100.00;100344.66;4968230;28;20050;-55
2022/02/13 06:09:57;;;;;;;3.35;0.98;;;;;;;2.48;100.00;100361.47;4954963;28;20098;-61
2022/02/13 06:12:42;;;;;;;3.15;0.93;;;;;;;2.47;100.00;100359.72;4949424;28;20081;-61
2022/02/13 06:15:26;;;;;;;3.30;1.02;;;;;;;2.47;100.00;100347.53;4964914;28;20105;-57
2022/02/13 06:18:11;;;;;;;3.85;0.73;;;;;;;2.39;100.00;100304.63;4962540;28;20090;-62
2022/02/13 06:20:56;;;;;;;3.45;1.00;;;;;;;2.58;100.00;100345.13;4966115;28;20058;-63
2022/02/13 06:23:40;;;;;;;3.40;0.70;;;;;;;2.63;100.00;100330.38;4938293;28;20092;-60
2022/02/13 06:26:25;;;;;;;3.28;0.73;;;;;;;2.62;100.00;100328.63;4969723;28;20072;-60
2022/02/13 06:29:10;;;;;;;3.85;0.60;;;;;;;2.58;100.00;100355.59;4939080;28;20192;-58
2022/02/13 06:31:57;;;;;;;3.00;0.98;;;;;;;2.65;100.00;100331.31;4954062;28;20502;-57
2022/02/13 06:34:42;;;;;;;6.65;0.93;;;;;;;2.57;100.00;100323.28;4923599;28;20078;-60
2022/02/13 06:37:26;;;;;;;2.78;0.60;;;;;;;2.61;100.00;100346.06;4916655;29;20113;-60
2022/02/13 06:40:12;;;;;;;5.22;0.82;;;;;;;2.68;100.00;100376.75;4952341;28;20046;-63
2022/02/13 06:42:56;;;;;;;2.42;0.70;;;;;;;2.72;100.00;100346.28;4908813;28;20139;-61
2022/02/13 06:45:41;;;;;;;4.85;0.90;;;;;;;2.69;100.00;100349.72;4959400;28;20045;-63
2022/02/13 06:48:31;;;;;;;4.55;0.90;;;;;;;2.75;100.00;100357.72;4924450;28;20058;-62
2022/02/13 06:51:15;;;;;;;5.68;0.90;;;;;;;2.80;100.00;100369.16;4951565;28;20077;-60
2022/02/13 06:54:00;;;;;;;3.90;1.08;;;;;;;2.76;100.00;100356.84;4952724;28;20085;-59
2022/02/13 06:56:44;;;;;;;5.65;1.70;;;;;;;2.74;100.00;100363.81;4967578;28;20141;-57
2022/02/13 06:59:29;;;;;;;3.60;1.20;;;;;;;2.66;100.00;100361.88;4950995;28;20852;-63
2022/02/13 07:02:14;;;;;;;4.85;1.20;;;;;;;2.82;100.00;100383.19;4966986;28;20090;-60
2022/02/13 07:04:59;;;;;;;3.30;0.95;;;;;;;2.84;100.00;100352.66;4933977;29;20062;-58
2022/02/13 07:07:44;;;;;;;7.90;1.23;;;;;;;2.73;100.00;100341.06;4962858;28;20109;-60
2022/02/13 07:10:28;;;;;;;3.58;0.80;;;;;;;2.93;100.00;100376.41;4966945;28;20058;-65
2022/02/13 07:13:13;;;;;;;2.65;0.73;;;;;;;2.96;100.00;100370.31;4962638;28;20089;-62
2022/02/13 07:15:57;;;;;;;4.25;0.82;;;;;;;2.98;100.00;100361.69;4932112;28;20110;-59
2022/02/13 07:18:42;;;;;;;5.72;1.20;;;;;;;3.13;100.00;100382.91;4966263;28;20419;-60
2022/02/13 07:21:27;;;;;;;5.03;0.90;;;;;;;3.08;100.00;100373.19;4965094;28;20116;-59
2022/02/13 07:24:11;;;;;;;5.03;1.20;;;;;;;3.09;100.00;100382.84;4967168;28;20057;-67
2022/02/13 07:26:55;;;;;;;3.00;0.73;;;;;;;3.17;100.00;100384.72;4967117;28;20145;-64
2022/02/13 07:29:40;;;;;;;7.18;1.52;;;;;;;3.20;100.00;100390.03;4949726;28;20651;-61
2022/02/13 07:32:25;;;;;;;5.18;1.30;;;;;;;3.17;100.00;100386.47;4958385;28;20062;-61
2022/02/13 07:35:10;;;;;;;4.00;0.93;;;;;;;2.89;100.00;100356.22;4940790;28;20154;-60
2022/02/13 07:37:54;;;;;;;4.43;1.08;;;;;;;3.27;100.00;100380.53;4937625;28;20058;-63
2022/02/13 07:40:39;;;;;;;2.70;1.00;;;;;;;3.24;100.00;100391.00;4948881;28;20050;-64
2022/02/13 07:43:23;;;;;;;3.42;1.30;;;;;;;3.26;100.00;100402.38;4951869;28;20057;-61
2022/02/13 07:46:08;;;;;;;3.15;1.23;;;;;;;3.21;100.00;100375.22;4973446;28;20061;-60
2022/02/13 07:48:52;;;;;;;5.32;1.95;;;;;;;3.27;100.00;100386.69;4966642;28;20051;-62
2022/02/13 07:51:37;;;;;;;7.55;2.95;;;;;;;2.97;100.00;100349.41;4954083;28;20121;-62
2022/02/13 07:54:21;;;;;;;6.90;1.73;;;;;;;3.25;100.00;100404.09;4957059;28;20077;-62
2022/02/13 07:57:06;;;;;;;3.97;1.00;;;;;;;3.32;100.00;100411.22;4961383;28;20110;-59
2022/02/13 07:59:50;;;;;;;5.50;1.20;;;;;;;3.38;100.00;100405.22;4955367;28;20104;-60
2022/02/13 08:02:36;;;;;;;4.60;1.47;;;;;;;3.46;100.00;100411.50;4970817;28;20433;-58
2022/02/13 08:05:20;;;;;;;5.40;1.75;;;;;;;3.54;100.00;100409.88;4959677;28;20483;-60
2022/02/13 08:08:05;;;;;;;4.25;1.35;;;;;;;3.60;100.00;100413.50;4963321;28;20133;-59
2022/02/13 08:10:50;;;;;;;6.82;1.40;;;;;;;3.61;100.00;100428.38;4919611;29;20050;-59
2022/02/13 08:13:35;;;;;;;5.57;1.50;;;;;;;3.52;100.00;100420.34;4959095;28;20080;-70
2022/02/13 08:16:19;;;;;;;5.03;1.52;;;;;;;3.65;100.00;100426.69;4939178;28;20061;-59
2022/02/13 08:19:04;;;;;;;7.20;1.67;;;;;;;3.55;100.00;100425.66;4957955;28;20088;-59
2022/02/13 08:21:48;;;;;;;4.63;1.50;;;;;;;3.36;100.00;100394.69;4972607;28;20470;-57
2022/02/13 08:24:36;;;;;;;5.28;1.45;;;;;;;3.59;100.00;100421.34;4942076;29;20363;-61
2022/02/13 08:27:23;;;;;;;5.60;1.15;;;;;;;3.41;100.00;100386.94;4989685;28;20121;-59
2022/02/13 08:30:08;;;;;;;4.05;1.17;;;;;;;3.63;100.00;100431.03;4962842;28;20044;-61
2022/02/13 08:32:58;;;;;;;5.22;1.45;;;;;;;3.82;100.00;100443.59;4983258;28;20158;-60
2022/02/13 08:35:43;;;;;;;5.03;1.25;;;;;;;3.78;100.00;100437.44;4977281;28;20170;-64
2022/02/13 08:38:36;;;;;;;5.47;1.05;;;;;;;3.91;100.00;100436.78;4968887;28;20134;-62
2022/02/13 08:41:21;;;;;;;8.88;1.17;;;;;;;3.86;100.00;100446.31;4975474;28;20058;-60
2022/02/13 08:44:06;;;;;;;6.63;1.40;;;;;;;3.99;100.00;100442.16;4975499;28;20134;-59
2022/02/13 08:46:52;;;;;;;2.42;0.90;;;;;;;3.82;100.00;100452.38;4951227;28;20073;-62
2022/02/13 08:49:36;;;;;;;5.20;1.38;;;;;;;3.94;100.00;100449.06;4976714;28;20046;-59
2022/02/13 08:52:21;;;;;;;7.03;1.30;;;;;;;3.96;100.00;100444.75;4975506;28;20108;-61
2022/02/13 08:55:07;;;;;;;2.45;1.13;;;;;;;3.94;100.00;100426.34;4977639;28;20112;-61
2022/02/13 08:57:53;;;;;;;3.20;1.17;;;;;;;4.03;100.00;100415.09;4973665;28;20078;-62
2022/02/13 09:00:37;;;;;;;4.05;1.45;;;;;;;4.27;100.00;100461.00;4978878;28;20048;-60
2022/02/13 09:03:22;;;;;;;4.90;1.23;;;;;;;4.16;100.00;100445.97;4978191;28;20054;-62
2022/02/13 09:06:06;;;;;;;3.40;1.13;;;;;;;3.92;100.00;100386.06;4979277;28;20061;-58
2022/02/13 09:08:51;;;;;;;5.78;1.45;;;;;;;4.11;100.00;100435.38;4981539;28;20149;-60
2022/02/13 09:11:37;;;;;;;5.43;1.30;;;;;;;4.55;100.00;100428.19;4980119;28;20073;-61
2022/02/13 09:14:22;;;;;;;6.85;1.77;;;;;;;6.75;100.00;100442.75;4968138;28;20710;-61
2022/02/13 09:17:06;;;;;;;3.92;1.65;;;;;;;7.70;100.00;100406.19;4982301;28;20067;-63
2022/02/13 09:19:51;;;;;;;7.00;1.88;;;;;;;7.70;100.00;100440.50;4967122;28;20053;-62
2022/02/13 09:22:35;;;;;;;3.58;1.48;;;;;;;8.10;100.00;100443.22;4969904;28;20474;-61
2022/02/13 09:25:20;;;;;;;7.70;1.33;;;;;;;7.25;100.00;100398.19;4985330;28;20069;-61
2022/02/13 09:28:04;;;;;;;4.20;1.27;;;;;;;7.94;100.00;100409.75;4944113;28;20150;-60
2022/02/13 09:30:50;;;;;;;4.65;1.30;;;;;;;8.81;100.00;100424.66;4958242;28;20087;-63
2022/02/13 09:33:35;;;;;;;3.85;1.35;;;;;;;9.94;100.00;100442.66;4950650;29;20122;-62
2022/02/13 09:36:20;;;;;;;4.45;1.38;;;;;;;10.41;96.28;100441.44;4966620;28;20334;-61
2022/02/13 09:39:05;;;;;;;3.45;1.27;;;;;;;10.13;90.92;100396.63;4964242;28;20575;-63
2022/02/13 09:41:50;;;;;;;5.38;1.33;;;;;;;9.41;99.40;100422.69;4957572;28;20623;-62
2022/02/13 09:44:35;;;;;;;3.03;1.20;;;;;;;8.74;100.00;100457.28;4969011;28;20590;-62
2022/02/13 09:47:20;;;;;;;5.20;1.70;;;;;;;9.35;100.00;100454.44;4961292;28;20048;-58
2022/02/13 09:50:07;;;;;;;4.13;1.25;;;;;;;9.82;99.04;100459.53;4969702;28;20061;-62
2022/02/13 09:52:54;;;;;;;3.75;1.10;;;;;;;9.85;95.06;100443.59;4941546;28;20081;-63
2022/02/13 09:55:39;;;;;;;5.50;1.48;;;;;;;8.71;100.00;100465.25;4937167;28;20130;-61
2022/02/13 09:58:24;;;;;;;6.68;1.20;;;;;;;8.44;100.00;100457.34;4942386;28;20058;-55
2022/02/13 10:01:10;;;;;;;3.85;1.30;;;;;;;8.35;100.00;100455.56;4952839;28;20177;-61
2022/02/13 10:03:55;;;;;;;1.98;1.02;;;;;;;8.72;100.00;100465.25;4908229;28;20143;-58
2022/02/13 10:06:41;;;;;;;3.03;1.30;;;;;;;8.47;100.00;100463.47;4955762;28;20054;-59
2022/02/13 10:09:37;;;;;;;4.25;1.30;;;;;;;7.64;100.00;100458.97;4937012;28;20105;-59
2022/02/13 10:12:39;;;;;;;5.13;1.70;;;;;;;7.56;100.00;100453.66;4960981;28;20102;-66
2022/02/13 10:15:27;;;;;;;5.20;1.80;;;;;;;7.76;100.00;100466.94;4930873;28;20045;-56
2022/02/13 10:18:11;;;;;;;7.25;2.20;;;;;;;7.45;100.00;100471.25;4958171;28;20534;-56
2022/02/13 10:20:56;;;;;;;5.85;1.60;;;;;;;6.68;100.00;100454.13;4960053;28;20569;-59
2022/02/13 10:23:40;;;;;;;4.13;1.60;;;;;;;6.44;100.00;100469.78;4951456;28;20121;-57
2022/02/13 10:26:26;;;;;;;5.43;1.30;;;;;;;6.16;100.00;100428.28;4958334;28;20825;-58
2022/02/13 10:29:12;;;;;;;3.53;1.60;;;;;;;5.95;100.00;100453.53;4958994;28;20054;-55
2022/02/13 10:32:29;;;;;;;3.80;0.90;;;;;;;5.65;100.00;100450.59;4963605;28;20419;-62
2022/02/13 10:35:15;;;;;;;4.03;1.00;;;;;;;5.33;100.00;100423.06;4946045;28;20062;-58
2022/02/13 10:38:00;;;;;;;3.85;1.20;;;;;;;5.64;100.00;100473.38;4947281;28;20099;-58
2022/02/13 10:40:44;;;;;;;7.38;1.00;;;;;;;5.56;100.00;100463.63;4956540;28;20062;-61
2022/02/13 10:43:28;;;;;;;3.37;0.90;;;;;;;5.51;100.00;100467.97;4958189;28;20137;-59
2022/02/13 10:46:19;;;;;;;5.75;1.05;;;;;;;5.73;100.00;100459.44;4960251;28;20337;-62
2022/02/13 10:49:06;;;;;;;6.53;1.85;;;;;;;5.32;100.00;100455.47;4941824;28;20497;-61
2022/02/13 10:51:51;;;;;;;5.68;2.05;;;;;;;5.19;100.00;100474.59;4944624;28;20073;-58
2022/02/13 10:54:38;;;;;;;4.78;1.80;;;;;;;4.88;100.00;100475.94;4943313;28;20078;-61
2022/02/13 10:57:23;;;;;;;7.80;1.88;;;;;;;4.61;100.00;100416.03;4939487;28;20081;-61
2022/02/13 11:00:13;;;;;;;8.38;1.60;;;;;;;4.76;100.00;100476.63;4968779;28;20097;-59
2022/02/13 11:03:05;;;;;;;3.50;1.13;;;;;;;4.66;100.00;100468.59;4954047;28;20554;-64
2022/02/13 11:05:51;;;;;;;4.30;0.95;;;;;;;4.66;100.00;100464.25;4955046;28;20048;-58
2022/02/13 11:08:59;;;;;;;2.72;1.05;;;;;;;4.87;100.00;100479.44;4936716;28;20085;-58
2022/02/13 11:11:46;;;;;;;5.38;1.40;;;;;;;4.85;100.00;100476.78;4948922;28;20069;-58
2022/02/13 11:14:41;;;;;;;3.72;1.08;;;;;;;4.88;100.00;100460.16;4960082;28;20049;-58
2022/02/13 11:17:34;;;;;;;4.32;0.93;;;;;;;4.63;100.00;100450.19;4956310;28;20070;-58
2022/02/13 11:20:23;;;;;;;3.08;1.00;;;;;;;4.81;100.00;100467.09;4948786;28;20141;-59
2022/02/13 11:23:23;;;;;;;6.22;1.00;;;;;;;5.90;100.00;100465.78;4969795;28;20045;-57
2022/02/13 11:26:11;;;;;;;3.67;1.00;;;;;;;6.20;100.00;100468.69;4951904;28;20109;-57
2022/02/13 11:28:58;;;;;;;5.22;1.27;;;;;;;6.14;100.00;100480.06;4953116;28;20132;-58
2022/02/13 11:31:55;;;;;;;3.03;0.95;;;;;;;6.49;100.00;100451.38;4965033;28;20081;-62
2022/02/13 11:34:41;;;;;;;4.82;1.23;;;;;;;8.00;100.00;100481.03;4964083;28;20646;-62
2022/02/13 11:37:43;;;;;;;3.38;0.95;;;;;;;7.71;100.00;100473.97;4973165;28;20411;-55
2022/02/13 11:40:34;;;;;;;2.55;1.08;;;;;;;6.92;100.00;100435.81;4979411;28;20174;-59
2022/02/13 11:43:45;;;;;;;5.78;1.60;;;;;;;6.98;100.00;100467.50;4977992;28;20061;-61
2022/02/13 11:46:30;;;;;;;2.58;1.05;;;;;;;6.76;100.00;100475.28;4979844;28;20052;-58
2022/02/13 11:49:15;;;;;;;4.45;1.20;;;;;;;6.47;100.00;100477.69;4977518;28;20053;-59
2022/02/13 11:52:00;;;;;;;;;;;;;;;6.43;100.00;100475.03;4955158;28;20104;-58
2022/02/13 11:54:48;;;;;;;2.42;1.20;;;;;;;6.03;100.00;100463.28;4975230;28;19925;-64
2022/02/13 11:57:33;;;;;;;4.00;1.27;;;;;;;5.50;100.00;100463.56;4974224;28;21092;-60
2022/02/13 12:00:19;;;;;;;6.50;1.42;;;;;;;5.54;100.00;100478.53;4975995;28;20527;-60
2022/02/13 12:03:20;;;;;;;4.88;1.40;;;;;;;5.80;100.00;100483.19;4975430;28;20097;-57
2022/02/13 12:06:05;;;;;;;5.28;1.40;;;;;;;5.61;100.00;100485.63;4964353;28;20050;-63
2022/02/13 12:08:50;;;;;;;3.58;1.63;;;;;;;5.46;100.00;100474.94;4970613;28;20065;-54
2022/02/13 12:11:42;;;;;;;4.15;1.50;;;;;;;5.41;100.00;100492.41;4970191;28;20057;-59
2022/02/13 12:14:27;;;;;;;4.35;1.50;;;;;;;5.37;100.00;100480.94;4944974;28;20121;-58
2022/02/13 12:17:12;;;;;;;5.10;1.33;;;;;;;5.37;100.00;100488.84;4977558;28;20449;-61
2022/02/13 12:20:09;;;;;;;6.82;1.70;;;;;;;5.40;100.00;100502.03;4980810;28;20116;-63
2022/02/13 12:23:02;;;;;;;7.25;1.52;;;;;;;5.38;100.00;100502.88;4986056;28;20045;-65
2022/02/13 12:25:47;;;;;;;4.72;1.38;;;;;;;5.25;100.00;100485.19;4969368;28;20078;-61
2022/02/13 12:28:36;;;;;;;;;;;;;;;5.23;100.00;100503.56;4965706;28;20090;-73
2022/02/13 12:31:25;;;;;;;3.20;1.50;;;;;;;5.06;100.00;100481.41;4989087;28;19927;-60
2022/02/13 12:34:10;;;;;;;5.65;1.27;;;;;;;4.65;100.00;100488.75;4987041;28;20152;-63
2022/02/13 12:37:01;;;;;;;3.92;1.27;;;;;;;4.43;100.00;100493.63;4978506;28;20477;-58
2022/02/13 12:39:51;;;;;;;9.35;1.70;;;;;;;4.34;100.00;100501.34;4979256;28;20083;-62
2022/02/13 12:42:42;;;;;;;4.28;1.35;;;;;;;4.23;100.00;100493.31;4974554;28;20084;-76
2022/02/13 12:45:29;;;;;;;4.35;1.33;;;;;;;4.30;100.00;100499.53;4966772;28;20117;-68
2022/02/13 12:48:21;;;;;;;4.20;1.30;;;;;;;4.07;100.00;100491.28;4962960;28;20101;-68
2022/02/13 12:51:06;;;;;;;4.15;1.40;;;;;;;4.11;100.00;100482.59;4974452;28;21350;-69
2022/02/13 12:53:52;;;;;;;;;;;;;;;4.14;100.00;100506.28;4969716;28;20501;-66